sensor_id;sensor_type;location;lat;lon;timestamp;P1;durP1;ratioP1;P2;durP2;ratioP2
13687;SDS011;6916;51.504;7.416;2023-01-30T00:04:09;28.17;;;15.90;;
13687;SDS011;6916;51.504;7.416;2023-01-30T00:14:14;28.23;;;15.33;;
13687;SDS011;6916;51.504;7.416;2023-01-30T00:24:17;26.33;;;15.40;;
13687;SDS011;6916;51.504;7.416;2023-01-30T00:34:19;24.73;;;15.97;;
13687;SDS011;6916;51.504;7.416;2023-01-30T00:44:22;24.67;;;15.37;;
13687;SDS011;6916;51.504;7.416;2023-01-30T00:54:42;29.83;;;17.10;;
13687;SDS011;6916;51.504;7.416;2023-01-30T01:04:45;28.93;;;16.60;;
13687;SDS011;6916;51.504;7.416;2023-01-30T01:14:47;27.73;;;17.60;;
13687;SDS011;6916;51.504;7.416;2023-01-30T01:24:49;28.70;;;17.50;;
13687;SDS011;6916;51.504;7.416;2023-01-30T01:34:52;28.73;;;17.00;;
13687;SDS011;6916;51.504;7.416;2023-01-30T01:44:59;30.50;;;17.30;;
13687;SDS011;6916;51.504;7.416;2023-01-30T01:55:03;27.00;;;17.00;;
13687;SDS011;6916;51.504;7.416;2023-01-30T02:05:08;28.07;;;16.83;;
13687;SDS011;6916;51.504;7.416;2023-01-30T02:15:12;24.80;;;16.80;;
13687;SDS011;6916;51.504;7.416;2023-01-30T02:56:42;30.43;;;19.50;;
13687;SDS011;6916;51.504;7.416;2023-01-30T03:17:46;25.90;;;16.03;;
13687;SDS011;6916;51.504;7.416;2023-01-30T03:27:51;29.93;;;18.70;;
13687;SDS011;6916;51.504;7.416;2023-01-30T03:37:56;28.83;;;17.83;;
13687;SDS011;6916;51.504;7.416;2023-01-30T03:47:59;28.43;;;18.47;;
13687;SDS011;6916;51.504;7.416;2023-01-30T03:58:01;29.27;;;17.83;;
13687;SDS011;6916;51.504;7.416;2023-01-30T04:08:06;30.67;;;18.33;;
13687;SDS011;6916;51.504;7.416;2023-01-30T04:18:09;30.30;;;17.43;;
13687;SDS011;6916;51.504;7.416;2023-01-30T04:28:22;29.33;;;17.90;;
13687;SDS011;6916;51.504;7.416;2023-01-30T04:38:27;26.47;;;16.43;;
13687;SDS011;6916;51.504;7.416;2023-01-30T04:48:31;26.40;;;17.07;;
13687;SDS011;6916;51.504;7.416;2023-01-30T04:58:35;22.97;;;16.37;;
13687;SDS011;6916;51.504;7.416;2023-01-30T05:08:37;22.73;;;14.23;;
13687;SDS011;6916;51.504;7.416;2023-01-30T05:18:40;22.60;;;13.90;;
13687;SDS011;6916;51.504;7.416;2023-01-30T05:28:42;18.47;;;13.73;;
13687;SDS011;6916;51.504;7.416;2023-01-30T05:38:45;17.83;;;12.87;;
13687;SDS011;6916;51.504;7.416;2023-01-30T05:48:47;19.50;;;13.60;;
13687;SDS011;6916;51.504;7.416;2023-01-30T05:58:50;18.67;;;14.03;;
13687;SDS011;6916;51.504;7.416;2023-01-30T06:08:53;17.87;;;13.67;;
13687;SDS011;6916;51.504;7.416;2023-01-30T06:18:56;21.80;;;16.43;;
13687;SDS011;6916;51.504;7.416;2023-01-30T06:28:58;27.20;;;18.03;;
13687;SDS011;6916;51.504;7.416;2023-01-30T06:39:00;25.33;;;18.13;;
13687;SDS011;6916;51.504;7.416;2023-01-30T06:49:02;28.93;;;20.43;;
13687;SDS011;6916;51.504;7.416;2023-01-30T06:59:05;30.77;;;18.67;;
13687;SDS011;6916;51.504;7.416;2023-01-30T07:09:07;28.30;;;19.00;;
13687;SDS011;6916;51.504;7.416;2023-01-30T07:19:09;25.57;;;18.03;;
13687;SDS011;6916;51.504;7.416;2023-01-30T07:29:11;26.67;;;17.67;;
13687;SDS011;6916;51.504;7.416;2023-01-30T07:39:14;26.03;;;17.70;;
13687;SDS011;6916;51.504;7.416;2023-01-30T07:49:16;23.20;;;16.10;;
13687;SDS011;6916;51.504;7.416;2023-01-30T07:59:18;16.87;;;10.57;;
13687;SDS011;6916;51.504;7.416;2023-01-30T08:09:20;13.07;;;6.37;;
13687;SDS011;6916;51.504;7.416;2023-01-30T08:19:22;14.20;;;6.13;;
13687;SDS011;6916;51.504;7.416;2023-01-30T08:29:25;11.83;;;4.17;;
13687;SDS011;6916;51.504;7.416;2023-01-30T08:39:27;11.00;;;3.17;;
13687;SDS011;6916;51.504;7.416;2023-01-30T08:49:29;13.93;;;3.97;;
13687;SDS011;6916;51.504;7.416;2023-01-30T08:59:31;11.00;;;2.50;;
13687;SDS011;6916;51.504;7.416;2023-01-30T09:09:33;12.93;;;2.70;;
13687;SDS011;6916;51.504;7.416;2023-01-30T09:19:36;7.27;;;1.70;;
13687;SDS011;6916;51.504;7.416;2023-01-30T09:29:38;11.40;;;2.00;;
13687;SDS011;6916;51.504;7.416;2023-01-30T09:39:40;7.83;;;2.20;;
13687;SDS011;6916;51.504;7.416;2023-01-30T09:49:58;14.30;;;2.30;;
13687;SDS011;6916;51.504;7.416;2023-01-30T10:00:38;8.67;;;1.63;;
13687;SDS011;6916;51.504;7.416;2023-01-30T10:21:14;10.40;;;1.97;;
13687;SDS011;6916;51.504;7.416;2023-01-30T10:31:21;15.70;;;1.97;;
13687;SDS011;6916;51.504;7.416;2023-01-30T10:41:28;11.73;;;2.07;;
13687;SDS011;6916;51.504;7.416;2023-01-30T10:51:37;7.37;;;1.63;;
13687;SDS011;6916;51.504;7.416;2023-01-30T11:01:44;11.10;;;2.17;;
13687;SDS011;6916;51.504;7.416;2023-01-30T11:11:53;12.27;;;2.13;;
13687;SDS011;6916;51.504;7.416;2023-01-30T11:21:59;6.37;;;1.37;;
13687;SDS011;6916;51.504;7.416;2023-01-30T11:32:04;7.73;;;2.07;;
13687;SDS011;6916;51.504;7.416;2023-01-30T11:42:13;10.27;;;2.23;;
13687;SDS011;6916;51.504;7.416;2023-01-30T11:52:16;11.93;;;2.50;;
13687;SDS011;6916;51.504;7.416;2023-01-30T12:12:36;11.27;;;2.10;;
13687;SDS011;6916;51.504;7.416;2023-01-30T12:22:48;11.50;;;1.80;;
13687;SDS011;6916;51.504;7.416;2023-01-30T12:33:13;14.23;;;2.83;;
13687;SDS011;6916;51.504;7.416;2023-01-30T13:14:27;17.73;;;3.37;;
13687;SDS011;6916;51.504;7.416;2023-01-30T13:24:49;10.97;;;2.20;;
13687;SDS011;6916;51.504;7.416;2023-01-30T13:34:56;13.27;;;2.00;;
13687;SDS011;6916;51.504;7.416;2023-01-30T13:45:00;9.60;;;2.20;;
13687;SDS011;6916;51.504;7.416;2023-01-30T13:55:05;10.47;;;2.17;;
13687;SDS011;6916;51.504;7.416;2023-01-30T14:05:18;14.10;;;3.23;;
13687;SDS011;6916;51.504;7.416;2023-01-30T14:15:54;11.77;;;2.37;;
13687;SDS011;6916;51.504;7.416;2023-01-30T14:25:58;14.57;;;2.43;;
13687;SDS011;6916;51.504;7.416;2023-01-30T14:56:30;8.83;;;2.43;;
13687;SDS011;6916;51.504;7.416;2023-01-30T15:06:48;11.17;;;2.23;;
13687;SDS011;6916;51.504;7.416;2023-01-30T15:16:54;13.97;;;2.47;;
13687;SDS011;6916;51.504;7.416;2023-01-30T15:38:01;13.43;;;2.40;;
13687;SDS011;6916;51.504;7.416;2023-01-30T15:58:43;11.50;;;1.90;;
13687;SDS011;6916;51.504;7.416;2023-01-30T16:08:53;11.10;;;2.53;;
13687;SDS011;6916;51.504;7.416;2023-01-30T16:19:01;17.93;;;2.83;;
13687;SDS011;6916;51.504;7.416;2023-01-30T16:29:06;19.33;;;2.50;;
13687;SDS011;6916;51.504;7.416;2023-01-30T16:39:29;12.27;;;2.40;;
13687;SDS011;6916;51.504;7.416;2023-01-30T16:59:39;10.77;;;2.37;;
13687;SDS011;6916;51.504;7.416;2023-01-30T17:09:42;17.87;;;2.57;;
13687;SDS011;6916;51.504;7.416;2023-01-30T17:19:46;10.87;;;2.30;;
13687;SDS011;6916;51.504;7.416;2023-01-30T17:29:49;12.03;;;2.13;;
13687;SDS011;6916;51.504;7.416;2023-01-30T17:39:51;12.93;;;2.07;;
13687;SDS011;6916;51.504;7.416;2023-01-30T17:49:54;18.47;;;2.53;;
13687;SDS011;6916;51.504;7.416;2023-01-30T17:59:56;17.20;;;2.83;;
13687;SDS011;6916;51.504;7.416;2023-01-30T18:09:58;15.63;;;2.70;;
13687;SDS011;6916;51.504;7.416;2023-01-30T18:20:00;11.30;;;3.03;;
13687;SDS011;6916;51.504;7.416;2023-01-30T18:30:04;10.77;;;2.10;;
13687;SDS011;6916;51.504;7.416;2023-01-30T18:40:07;13.80;;;2.87;;
13687;SDS011;6916;51.504;7.416;2023-01-30T18:50:10;13.27;;;2.20;;
13687;SDS011;6916;51.504;7.416;2023-01-30T19:00:12;13.90;;;2.50;;
13687;SDS011;6916;51.504;7.416;2023-01-30T19:10:18;11.43;;;2.80;;
13687;SDS011;6916;51.504;7.416;2023-01-30T19:20:21;17.40;;;3.30;;
13687;SDS011;6916;51.504;7.416;2023-01-30T19:30:25;12.07;;;2.43;;
13687;SDS011;6916;51.504;7.416;2023-01-30T19:40:27;14.43;;;2.13;;
13687;SDS011;6916;51.504;7.416;2023-01-30T19:50:31;16.47;;;2.30;;
13687;SDS011;6916;51.504;7.416;2023-01-30T20:00:33;16.43;;;2.30;;
13687;SDS011;6916;51.504;7.416;2023-01-30T20:10:35;13.23;;;2.57;;
13687;SDS011;6916;51.504;7.416;2023-01-30T20:20:38;17.43;;;4.27;;
13687;SDS011;6916;51.504;7.416;2023-01-30T20:30:40;11.63;;;2.93;;
13687;SDS011;6916;51.504;7.416;2023-01-30T20:40:42;17.10;;;3.03;;
13687;SDS011;6916;51.504;7.416;2023-01-30T20:50:45;13.03;;;3.03;;
13687;SDS011;6916;51.504;7.416;2023-01-30T21:00:47;17.67;;;2.80;;
13687;SDS011;6916;51.504;7.416;2023-01-30T21:10:49;13.07;;;3.03;;
13687;SDS011;6916;51.504;7.416;2023-01-30T21:20:51;19.03;;;3.17;;
13687;SDS011;6916;51.504;7.416;2023-01-30T21:30:53;13.43;;;3.27;;
13687;SDS011;6916;51.504;7.416;2023-01-30T21:40:56;14.83;;;2.63;;
13687;SDS011;6916;51.504;7.416;2023-01-30T21:51:17;11.20;;;3.07;;
13687;SDS011;6916;51.504;7.416;2023-01-30T22:01:19;11.23;;;2.97;;
13687;SDS011;6916;51.504;7.416;2023-01-30T22:11:21;15.67;;;3.30;;
13687;SDS011;6916;51.504;7.416;2023-01-30T22:21:25;13.50;;;2.97;;
13687;SDS011;6916;51.504;7.416;2023-01-30T22:31:29;12.03;;;3.37;;
13687;SDS011;6916;51.504;7.416;2023-01-30T22:41:37;12.03;;;2.50;;
13687;SDS011;6916;51.504;7.416;2023-01-30T22:51:39;14.40;;;2.60;;
13687;SDS011;6916;51.504;7.416;2023-01-30T23:01:43;14.90;;;3.50;;
13687;SDS011;6916;51.504;7.416;2023-01-30T23:11:48;12.83;;;2.27;;
13687;SDS011;6916;51.504;7.416;2023-01-30T23:22:10;15.47;;;2.90;;
13687;SDS011;6916;51.504;7.416;2023-01-30T23:32:12;13.40;;;3.60;;
13687;SDS011;6916;51.504;7.416;2023-01-30T23:42:15;12.43;;;3.20;;
13687;SDS011;6916;51.504;7.416;2023-01-30T23:52:17;10.70;;;2.67;;
